KESWICK RESERVOIR (KES)

Elevation: 596' · SACRAMENTO R basin · Operator: US Bureau of Reclamation

Provisional data, subject to change.
Query executed Saturday at 22:55:42   clock

Select a sensor type for a plot of data.
Note: Reservoir Flows are daily averages.

Earlier

Date RES ELE    STORAGE    RES CHG    OUTFLOW    INFLOW   
 FEET   AF   AF   CFS   CFS  
10/24/2014 583.11 21350 -867 4527 4090
10/25/2014 582.53 21002 -348 4504 4331
10/26/2014 584.05 21921 919 4420 4883
10/27/2014 583.90 21829 -92 4449 4405
10/28/2014 583.47 21568 -261 4450 4320
10/29/2014 581.38 20323 -1245 4443 3816
10/30/2014 580.41 19760 -563 4449 4167
10/31/2014 582.22 20817 1057 4503 5036
11/01/2014 582.00 20686 -131 4519 4454
11/02/2014 580.84 20008 -678 4520 4179
11/03/2014 582.35 20895 887 4549 4997
11/04/2014 580.93 20060 -835 4606 4187
11/05/2014 580.19 19633 -427 4495 4281
11/06/2014 579.89 19462 -171 4454 4370
11/07/2014 580.28 19685 223 4406 4520
11/08/2014 579.89 19462 -223 4400 4290
11/09/2014 579.97 19507 45 4394 4419
11/10/2014 579.83 19428 -79 4373 4335
11/11/2014 577.47 18122 -1306 4267 3612
11/12/2014 578.57 18725 603 4162 4467
11/13/2014 578.26 18554 -171 4144 4058
11/14/2014 580.19 19633 1079 4127 4672
11/15/2014 580.71 19933 300 4177 4328
11/16/2014 580.48 19800 -133 4110 4044
11/17/2014 579.74 19378 -422 4015 3804
11/18/2014 579.14 19041 -337 3992 3823
11/19/2014 577.56 18171 -870 3924 3486
11/20/2014 575.49 17067 -1104 3928 3372
11/21/2014 579.62 19310 2243 3958 5092
11/22/2014 -- -- -- -- --

Later | Latest

Warning! This data is preliminary and subject to revision.

Show KES Map | Plot KES Data | 1 Month KES Data | Real-Time KES Data | KES Info